sensor_id;sensor_type;location;lat;lon;timestamp;P1;durP1;ratioP1;P2;durP2;ratioP2
22863;SDS011;11599;49.882;8.680;2023-04-01T00:06:49;4.93;;;0.90;;
22863;SDS011;11599;49.882;8.680;2023-04-01T00:17:13;5.90;;;0.80;;
22863;SDS011;11599;49.882;8.680;2023-04-01T00:27:35;5.50;;;0.90;;
22863;SDS011;11599;49.882;8.680;2023-04-01T00:37:58;3.95;;;0.90;;
22863;SDS011;11599;49.882;8.680;2023-04-01T00:48:20;4.80;;;0.80;;
22863;SDS011;11599;49.882;8.680;2023-04-01T00:58:46;4.90;;;1.10;;
22863;SDS011;11599;49.882;8.680;2023-04-01T01:09:15;5.73;;;0.90;;
22863;SDS011;11599;49.882;8.680;2023-04-01T01:19:55;5.63;;;0.90;;
22863;SDS011;11599;49.882;8.680;2023-04-01T01:30:39;7.10;;;1.10;;
22863;SDS011;11599;49.882;8.680;2023-04-01T01:41:06;4.80;;;1.10;;
22863;SDS011;11599;49.882;8.680;2023-04-01T02:01:48;6.15;;;0.90;;
22863;SDS011;11599;49.882;8.680;2023-04-01T02:12:12;5.10;;;1.10;;
22863;SDS011;11599;49.882;8.680;2023-04-01T02:22:38;4.30;;;0.80;;
22863;SDS011;11599;49.882;8.680;2023-04-01T02:33:03;5.77;;;0.93;;
22863;SDS011;11599;49.882;8.680;2023-04-01T02:43:29;5.40;;;1.10;;
22863;SDS011;11599;49.882;8.680;2023-04-01T02:53:47;5.00;;;1.10;;
22863;SDS011;11599;49.882;8.680;2023-04-01T03:04:10;4.70;;;0.80;;
22863;SDS011;11599;49.882;8.680;2023-04-01T03:14:32;6.10;;;1.15;;
22863;SDS011;11599;49.882;8.680;2023-04-01T03:24:55;5.00;;;0.90;;
22863;SDS011;11599;49.882;8.680;2023-04-01T03:35:17;5.20;;;1.00;;
22863;SDS011;11599;49.882;8.680;2023-04-01T03:45:44;4.80;;;0.80;;
22863;SDS011;11599;49.882;8.680;2023-04-01T03:56:07;4.40;;;0.90;;
22863;SDS011;11599;49.882;8.680;2023-04-01T04:06:32;4.15;;;0.90;;
22863;SDS011;11599;49.882;8.680;2023-04-01T04:16:53;5.70;;;0.70;;
22863;SDS011;11599;49.882;8.680;2023-04-01T04:27:16;4.30;;;0.70;;
22863;SDS011;11599;49.882;8.680;2023-04-01T05:08:56;3.70;;;0.60;;
22863;SDS011;11599;49.882;8.680;2023-04-01T05:40:00;6.80;;;0.90;;
22863;SDS011;11599;49.882;8.680;2023-04-01T06:00:45;2.90;;;0.50;;
22863;SDS011;11599;49.882;8.680;2023-04-01T06:11:13;3.80;;;0.65;;
22863;SDS011;11599;49.882;8.680;2023-04-01T06:21:50;2.30;;;0.50;;
22863;SDS011;11599;49.882;8.680;2023-04-01T06:32:27;1.90;;;0.60;;
22863;SDS011;11599;49.882;8.680;2023-04-01T06:42:59;2.70;;;0.50;;
22863;SDS011;11599;49.882;8.680;2023-04-01T06:53:46;1.83;;;0.50;;
22863;SDS011;11599;49.882;8.680;2023-04-01T07:04:30;2.90;;;0.50;;
22863;SDS011;11599;49.882;8.680;2023-04-01T07:14:53;2.30;;;0.63;;
22863;SDS011;11599;49.882;8.680;2023-04-01T07:25:16;3.30;;;0.60;;
22863;SDS011;11599;49.882;8.680;2023-04-01T07:46:09;2.43;;;0.60;;
22863;SDS011;11599;49.882;8.680;2023-04-01T07:56:35;2.00;;;0.60;;
22863;SDS011;11599;49.882;8.680;2023-04-01T08:07:05;2.30;;;0.53;;
22863;SDS011;11599;49.882;8.680;2023-04-01T08:17:34;0.80;;;0.40;;
22863;SDS011;11599;49.882;8.680;2023-04-01T08:28:08;1.10;;;0.50;;
22863;SDS011;11599;49.882;8.680;2023-04-01T08:38:32;2.30;;;0.50;;
22863;SDS011;11599;49.882;8.680;2023-04-01T08:49:01;1.90;;;0.40;;
22863;SDS011;11599;49.882;8.680;2023-04-01T09:09:50;1.30;;;0.50;;
22863;SDS011;11599;49.882;8.680;2023-04-01T09:20:29;1.40;;;0.40;;
22863;SDS011;11599;49.882;8.680;2023-04-01T09:41:55;2.10;;;0.60;;
22863;SDS011;11599;49.882;8.680;2023-04-01T10:03:10;2.00;;;0.70;;
22863;SDS011;11599;49.882;8.680;2023-04-01T10:13:55;1.63;;;0.50;;
22863;SDS011;11599;49.882;8.680;2023-04-01T10:35:17;1.23;;;0.40;;
22863;SDS011;11599;49.882;8.680;2023-04-01T10:57:23;1.60;;;0.70;;
22863;SDS011;11599;49.882;8.680;2023-04-01T11:08:23;0.90;;;0.40;;
22863;SDS011;11599;49.882;8.680;2023-04-01T11:18:55;1.13;;;0.50;;
22863;SDS011;11599;49.882;8.680;2023-04-01T11:50:44;0.50;;;0.50;;
22863;SDS011;11599;49.882;8.680;2023-04-01T12:11:53;0.90;;;0.40;;
22863;SDS011;11599;49.882;8.680;2023-04-01T12:22:27;0.77;;;0.50;;
22863;SDS011;11599;49.882;8.680;2023-04-01T12:32:55;1.85;;;0.50;;
22863;SDS011;11599;49.882;8.680;2023-04-01T12:54:17;0.77;;;0.60;;
22863;SDS011;11599;49.882;8.680;2023-04-01T13:04:54;0.70;;;0.60;;
22863;SDS011;11599;49.882;8.680;2023-04-01T13:15:31;1.70;;;0.80;;
22863;SDS011;11599;49.882;8.680;2023-04-01T13:26:07;1.05;;;0.70;;
22863;SDS011;11599;49.882;8.680;2023-04-01T13:36:38;2.20;;;0.70;;
22863;SDS011;11599;49.882;8.680;2023-04-01T13:47:07;0.90;;;0.55;;
22863;SDS011;11599;49.882;8.680;2023-04-01T13:57:36;1.42;;;0.60;;
22863;SDS011;11599;49.882;8.680;2023-04-01T14:08:05;1.13;;;0.50;;
22863;SDS011;11599;49.882;8.680;2023-04-01T14:18:33;1.77;;;0.50;;
22863;SDS011;11599;49.882;8.680;2023-04-01T14:29:01;0.63;;;0.40;;
22863;SDS011;11599;49.882;8.680;2023-04-01T14:39:36;3.50;;;0.70;;
22863;SDS011;11599;49.882;8.680;2023-04-01T14:50:09;0.53;;;0.40;;
22863;SDS011;11599;49.882;8.680;2023-04-01T15:00:45;0.98;;;0.50;;
22863;SDS011;11599;49.882;8.680;2023-04-01T15:11:26;3.20;;;1.00;;
22863;SDS011;11599;49.882;8.680;2023-04-01T15:22:03;1.07;;;0.50;;
22863;SDS011;11599;49.882;8.680;2023-04-01T15:32:29;0.90;;;0.60;;
22863;SDS011;11599;49.882;8.680;2023-04-01T15:43:06;2.37;;;0.60;;
22863;SDS011;11599;49.882;8.680;2023-04-01T15:53:45;1.60;;;0.60;;
22863;SDS011;11599;49.882;8.680;2023-04-01T16:04:19;2.57;;;1.00;;
22863;SDS011;11599;49.882;8.680;2023-04-01T16:14:51;1.60;;;0.50;;
22863;SDS011;11599;49.882;8.680;2023-04-01T16:25:43;1.00;;;0.40;;
22863;SDS011;11599;49.882;8.680;2023-04-01T16:36:09;1.60;;;0.50;;
22863;SDS011;11599;49.882;8.680;2023-04-01T16:46:47;2.28;;;0.55;;
22863;SDS011;11599;49.882;8.680;2023-04-01T16:57:18;1.40;;;0.60;;
22863;SDS011;11599;49.882;8.680;2023-04-01T17:07:46;1.73;;;0.60;;
22863;SDS011;11599;49.882;8.680;2023-04-01T17:18:11;1.33;;;0.53;;
22863;SDS011;11599;49.882;8.680;2023-04-01T17:28:44;1.95;;;1.00;;
22863;SDS011;11599;49.882;8.680;2023-04-01T17:39:41;1.63;;;0.68;;
22863;SDS011;11599;49.882;8.680;2023-04-01T17:50:24;1.70;;;0.53;;
22863;SDS011;11599;49.882;8.680;2023-04-01T18:01:03;1.77;;;0.50;;
22863;SDS011;11599;49.882;8.680;2023-04-01T18:11:38;1.65;;;0.80;;
22863;SDS011;11599;49.882;8.680;2023-04-01T18:22:08;0.93;;;0.50;;
22863;SDS011;11599;49.882;8.680;2023-04-01T18:32:33;1.20;;;0.70;;
22863;SDS011;11599;49.882;8.680;2023-04-01T18:43:01;2.97;;;0.50;;
22863;SDS011;11599;49.882;8.680;2023-04-01T18:53:28;2.30;;;0.70;;
22863;SDS011;11599;49.882;8.680;2023-04-01T19:03:57;1.65;;;0.68;;
22863;SDS011;11599;49.882;8.680;2023-04-01T19:14:38;1.43;;;0.57;;
22863;SDS011;11599;49.882;8.680;2023-04-01T19:25:21;1.00;;;0.57;;
22863;SDS011;11599;49.882;8.680;2023-04-01T19:35:47;1.40;;;0.50;;
22863;SDS011;11599;49.882;8.680;2023-04-01T19:46:14;1.63;;;0.70;;
22863;SDS011;11599;49.882;8.680;2023-04-01T19:56:41;10.27;;;4.67;;
22863;SDS011;11599;49.882;8.680;2023-04-01T20:07:06;1.80;;;0.80;;
22863;SDS011;11599;49.882;8.680;2023-04-01T20:17:38;1.20;;;0.77;;
22863;SDS011;11599;49.882;8.680;2023-04-01T20:28:04;3.25;;;0.70;;
22863;SDS011;11599;49.882;8.680;2023-04-01T20:49:18;1.17;;;0.70;;
22863;SDS011;11599;49.882;8.680;2023-04-01T20:59:44;1.60;;;0.73;;
22863;SDS011;11599;49.882;8.680;2023-04-01T21:10:15;1.07;;;0.57;;
22863;SDS011;11599;49.882;8.680;2023-04-01T21:31:34;1.23;;;0.70;;
22863;SDS011;11599;49.882;8.680;2023-04-01T21:42:06;1.53;;;0.80;;
22863;SDS011;11599;49.882;8.680;2023-04-01T21:52:46;1.37;;;0.77;;
22863;SDS011;11599;49.882;8.680;2023-04-01T22:03:28;2.40;;;0.80;;
22863;SDS011;11599;49.882;8.680;2023-04-01T22:13:58;2.20;;;0.90;;
22863;SDS011;11599;49.882;8.680;2023-04-01T22:24:25;1.60;;;0.70;;
22863;SDS011;11599;49.882;8.680;2023-04-01T22:34:55;2.07;;;1.30;;
22863;SDS011;11599;49.882;8.680;2023-04-01T22:45:25;3.20;;;1.73;;
22863;SDS011;11599;49.882;8.680;2023-04-01T22:55:54;1.77;;;1.10;;
22863;SDS011;11599;49.882;8.680;2023-04-01T23:06:21;2.80;;;1.17;;
22863;SDS011;11599;49.882;8.680;2023-04-01T23:16:45;3.73;;;1.17;;
22863;SDS011;11599;49.882;8.680;2023-04-01T23:27:10;2.90;;;1.20;;
22863;SDS011;11599;49.882;8.680;2023-04-01T23:37:35;2.08;;;1.30;;
22863;SDS011;11599;49.882;8.680;2023-04-01T23:47:57;4.78;;;1.80;;
22863;SDS011;11599;49.882;8.680;2023-04-01T23:58:22;3.03;;;1.90;;
